Mission Woods, Kansas
Current Conditions -  °F | °C
As of 5:54 PM on Friday 21 Nov 2014 (Local Time) from KMKC Reporting Station
Overcast Overcast  
Wind Chill: 44°   Ceiling: 2200
Heat Index: 44°   Visibility: 10mi
Dew Point: 36°   Wind: 3mph
Humidity: 73%   Direction: 80°E
Pressure: 30.08"   Gusts: NA
Location:  39.0312°N, 94.6315°W
Report Text: KMKC 212354Z 08003KT 10SM OVC022 07/02 A3008 RMK AO2 RAE2258 SLP192 P0000 60002 T00670022 10072 20056 56013
Loading
Personal Weather Stations






























Interactive Weather Map New forecast layout! Learn more

10-Day Weather Forecast

Advertisements
Track Severe Weather on mobile